This is the latest recevied weather packets stored in our database for station/object SP2WPY-13. If no packets are shown the sender has not sent any weather packets the latest 10 day(s).
| Time | Temp. | Humidity | Pressure | Rain* | Wind** | Luminosity | Snow |
|---|---|---|---|---|---|---|---|
| 1787498119 | 16.67° C | 93% | 1019.1 hPa | - | - | - | - |
| 1787497846 | 17.22° C | 91% | 1019.1 hPa | - | - | - | - |
| 1787497526 | 17.78° C | 94% | 1019 hPa | - | - | - | - |
| 1787497206 | 17.22° C | 93% | 1019 hPa | - | - | - | - |
| 1787496933 | 17.22° C | 93% | 1019.1 hPa | - | - | - | - |
| 1787496612 | 16.67° C | 92% | 1019 hPa | - | - | - | - |
| 1787496339 | 17.22° C | 90% | 1019 hPa | - | - | - | - |
| 1787496019 | 17.22° C | 87% | 1018.8 hPa | - | - | - | - |
| 1787495745 | 17.78° C | 86% | 1018.8 hPa | - | - | - | - |
| 1787495425 | 18.33° C | 84% | 1018.7 hPa | - | - | - | - |
| 1787495105 | 17.78° C | 85% | 1018.7 hPa | - | - | - | - |
| 1787494831 | 17.78° C | 86% | 1018.7 hPa | - | - | - | - |
| 1787494512 | 17.78° C | 85% | 1018.7 hPa | - | - | - | - |
| 1787494237 | 17.22° C | 85% | 1018.7 hPa | - | - | - | - |
| 1787493918 | 17.78° C | 85% | 1018.7 hPa | - | - | - | - |
| 1787493643 | 18.89° C | 81% | 1018.6 hPa | - | - | - | - |
| 1787493323 | 18.89° C | 82% | 1018.5 hPa | - | - | - | - |
| 1787493004 | 18.33° C | 87% | 1018.6 hPa | - | - | - | - |
| 1787492729 | 18.33° C | 90% | 1018.5 hPa | - | - | - | - |
| 1787492410 | 17.78° C | 92% | 1018.5 hPa | - | - | - | - |
| 1787492135 | 17.78° C | 91% | 1018.5 hPa | - | - | - | - |
| 1787491816 | 17.78° C | 93% | 1018.4 hPa | - | - | - | - |
| 1787491542 | 17.22° C | 99% | 1018.4 hPa | - | - | - | - |
| 1787491222 | 17.22° C | 100% | 1018.4 hPa | - | - | - | - |
| 1787490902 | 17.22° C | 100% | 1018.4 hPa | - | - | - | - |
* Rain since midnight (hover to see other rain measurements)
** Current wind speed in m/s (hover to see current wind gust speed)